Date,TemperatureHighF,TemperatureAvgF,TemperatureLowF,DewpointHighF,DewpointAvgF,DewpointLowF,HumidityHigh,HumidityAvg,HumidityLow,PressureMaxIn,PressureMinIn,WindSpeedMaxMPH,WindSpeedAvgMPH,GustSpeedMaxMPH,PrecipitationSumIn
2013-7-1,90,76,67,70,58,47,92,58,31,29.92,29.73,2,0,2,0.01
2013-7-2,94,77,60,55,44,28,71,39,14,29.93,29.78,3,0,3,0.00
2013-7-3,98,79,59,51,38,20,63,33,10,29.87,29.70,2,0,2,0.00
2013-7-4,98,80,62,61,48,34,59,38,15,29.79,29.64,6,0,6,0.00
2013-7-5,102,85,64,56,46,32,70,33,13,29.77,29.60,6,0,6,0.00
2013-7-6,100,86,66,61,51,37,75,37,16,29.74,29.59,7,0,7,0.00
2013-7-7,101,85,67,66,56,47,78,44,21,29.78,29.67,6,0,6,0.00
2013-7-8,99,84,71,73,65,56,85,57,30,29.86,29.73,4,0,4,0.05
2013-7-9,100,85,69,71,63,55,93,54,26,29.91,29.77,7,0,7,0.00
2013-7-10,105,87,71,71,61,52,83,48,22,29.89,29.69,2,0,2,0.00
2013-7-11,103,90,75,68,60,52,74,41,23,29.79,29.65,3,0,3,0.00
2013-7-12,105,90,73,69,53,31,66,37,12,29.76,29.65,8,0,8,0.00
2013-7-13,106,89,69,62,48,30,61,33,12,29.80,29.65,4,0,4,0.00
2013-7-14,109,85,70,65,53,34,85,41,12,29.72,29.58,10,0,10,0.00
2013-7-15,70,66,63,68,66,62,99,97,85,29.83,29.69,15,5,15,1.02
2013-7-16,82,70,66,75,70,66,99,98,78,29.93,29.80,24,2,24,0.87
2013-7-17,85,74,70,75,71,69,99,91,66,29.98,29.88,10,1,10,0.13
2013-7-18,88,75,69,74,70,68,99,86,57,29.96,29.81,5,0,5,0.05
2013-7-19,94,80,67,76,68,62,99,73,38,29.87,29.71,4,0,4,0.01
2013-7-20,96,81,68,73,68,62,98,71,36,29.77,29.68,4,0,4,0.00
2013-7-25,86,84,82,71,70,68,64,63,62,29.79,29.77,0,0,0,0.00
2013-7-26,105,87,78,72,68,61,77,56,30,29.82,29.70,4,0,4,0.00
2013-7-27,95,80,68,71,64,50,94,61,24,29.85,29.71,4,0,4,0.00
2013-7-28,74,72,71,60,60,59,67,64,61,29.77,29.76,0,0,0,0.00
2013-7-29,90,86,83,61,59,57,48,40,34,29.74,29.73,0,0,0,0.00
2013-7-30,105,88,78,73,67,59,77,52,28,29.85,29.73,8,0,8,0.00
2013-7-31,106,89,77,72,66,62,79,49,25,29.88,29.74,4,0,4,0.00